sensor_id;sensor_type;location;lat;lon;timestamp;P1;durP1;ratioP1;P2;durP2;ratioP2
3527;SDS011;1778;47.966;7.854;2023-09-07T00:00:59;4.67;;;4.37;;
3527;SDS011;1778;47.966;7.854;2023-09-07T00:02:05;5.00;;;4.70;;
3527;SDS011;1778;47.966;7.854;2023-09-07T00:03:07;5.07;;;4.77;;
3527;SDS011;1778;47.966;7.854;2023-09-07T00:04:09;4.87;;;4.30;;
3527;SDS011;1778;47.966;7.854;2023-09-07T00:05:11;4.80;;;4.50;;
3527;SDS011;1778;47.966;7.854;2023-09-07T00:06:14;4.23;;;3.93;;
3527;SDS011;1778;47.966;7.854;2023-09-07T00:07:15;4.83;;;4.57;;
3527;SDS011;1778;47.966;7.854;2023-09-07T00:08:17;4.77;;;4.47;;
3527;SDS011;1778;47.966;7.854;2023-09-07T00:09:19;5.00;;;4.70;;
3527;SDS011;1778;47.966;7.854;2023-09-07T00:10:23;4.17;;;3.90;;
3527;SDS011;1778;47.966;7.854;2023-09-07T00:11:26;4.80;;;4.60;;
3527;SDS011;1778;47.966;7.854;2023-09-07T00:12:28;5.00;;;4.50;;
3527;SDS011;1778;47.966;7.854;2023-09-07T00:13:30;5.13;;;4.73;;
3527;SDS011;1778;47.966;7.854;2023-09-07T00:14:32;4.60;;;4.30;;
3527;SDS011;1778;47.966;7.854;2023-09-07T00:15:37;4.87;;;4.47;;
3527;SDS011;1778;47.966;7.854;2023-09-07T00:16:39;6.13;;;4.50;;
3527;SDS011;1778;47.966;7.854;2023-09-07T00:17:41;5.07;;;4.70;;
3527;SDS011;1778;47.966;7.854;2023-09-07T00:18:42;5.03;;;4.70;;
3527;SDS011;1778;47.966;7.854;2023-09-07T00:19:44;4.40;;;4.20;;
3527;SDS011;1778;47.966;7.854;2023-09-07T00:20:47;4.40;;;4.20;;
3527;SDS011;1778;47.966;7.854;2023-09-07T00:21:49;4.83;;;4.53;;
3527;SDS011;1778;47.966;7.854;2023-09-07T00:22:52;4.70;;;4.30;;
3527;SDS011;1778;47.966;7.854;2023-09-07T00:23:54;4.03;;;3.80;;
3527;SDS011;1778;47.966;7.854;2023-09-07T00:24:56;4.43;;;4.13;;
3527;SDS011;1778;47.966;7.854;2023-09-07T00:25:58;4.83;;;4.53;;
3527;SDS011;1778;47.966;7.854;2023-09-07T00:27:00;4.10;;;3.80;;
3527;SDS011;1778;47.966;7.854;2023-09-07T00:28:01;5.13;;;4.63;;
3527;SDS011;1778;47.966;7.854;2023-09-07T00:29:04;4.60;;;4.33;;
3527;SDS011;1778;47.966;7.854;2023-09-07T00:30:07;4.60;;;4.37;;
3527;SDS011;1778;47.966;7.854;2023-09-07T00:31:10;4.80;;;4.50;;
3527;SDS011;1778;47.966;7.854;2023-09-07T00:32:11;5.30;;;4.93;;
3527;SDS011;1778;47.966;7.854;2023-09-07T00:33:13;4.93;;;4.63;;
3527;SDS011;1778;47.966;7.854;2023-09-07T00:34:14;4.97;;;4.67;;
3527;SDS011;1778;47.966;7.854;2023-09-07T00:35:16;4.53;;;4.30;;
3527;SDS011;1778;47.966;7.854;2023-09-07T00:36:18;5.10;;;4.80;;
3527;SDS011;1778;47.966;7.854;2023-09-07T00:37:19;4.77;;;4.47;;
3527;SDS011;1778;47.966;7.854;2023-09-07T00:38:21;4.53;;;4.33;;
3527;SDS011;1778;47.966;7.854;2023-09-07T00:39:23;5.03;;;4.73;;
3527;SDS011;1778;47.966;7.854;2023-09-07T00:40:24;5.20;;;4.80;;
3527;SDS011;1778;47.966;7.854;2023-09-07T00:41:27;5.10;;;4.60;;
3527;SDS011;1778;47.966;7.854;2023-09-07T00:42:29;5.17;;;4.80;;
3527;SDS011;1778;47.966;7.854;2023-09-07T00:43:30;7.23;;;5.57;;
3527;SDS011;1778;47.966;7.854;2023-09-07T00:44:32;6.47;;;4.40;;
3527;SDS011;1778;47.966;7.854;2023-09-07T00:45:33;4.30;;;4.00;;
3527;SDS011;1778;47.966;7.854;2023-09-07T00:46:35;5.30;;;5.00;;
3527;SDS011;1778;47.966;7.854;2023-09-07T00:47:37;5.00;;;4.70;;
3527;SDS011;1778;47.966;7.854;2023-09-07T00:48:39;5.10;;;4.70;;
3527;SDS011;1778;47.966;7.854;2023-09-07T00:49:41;4.47;;;4.27;;
3527;SDS011;1778;47.966;7.854;2023-09-07T00:50:46;4.77;;;4.57;;
3527;SDS011;1778;47.966;7.854;2023-09-07T00:51:47;4.83;;;4.53;;
3527;SDS011;1778;47.966;7.854;2023-09-07T00:52:49;5.90;;;5.23;;
3527;SDS011;1778;47.966;7.854;2023-09-07T00:53:52;5.63;;;5.13;;
3527;SDS011;1778;47.966;7.854;2023-09-07T00:54:54;7.03;;;5.60;;
3527;SDS011;1778;47.966;7.854;2023-09-07T00:55:56;4.40;;;4.20;;
3527;SDS011;1778;47.966;7.854;2023-09-07T00:56:59;4.97;;;4.67;;
3527;SDS011;1778;47.966;7.854;2023-09-07T00:58:02;4.77;;;4.47;;
3527;SDS011;1778;47.966;7.854;2023-09-07T00:59:04;4.77;;;4.37;;
3527;SDS011;1778;47.966;7.854;2023-09-07T01:00:08;4.10;;;3.90;;
3527;SDS011;1778;47.966;7.854;2023-09-07T01:01:11;5.33;;;4.83;;
3527;SDS011;1778;47.966;7.854;2023-09-07T01:02:13;4.87;;;4.57;;
3527;SDS011;1778;47.966;7.854;2023-09-07T01:03:15;4.83;;;4.40;;
3527;SDS011;1778;47.966;7.854;2023-09-07T01:04:17;4.57;;;4.27;;
3527;SDS011;1778;47.966;7.854;2023-09-07T01:05:20;4.87;;;4.57;;
3527;SDS011;1778;47.966;7.854;2023-09-07T01:06:26;5.37;;;4.97;;
3527;SDS011;1778;47.966;7.854;2023-09-07T01:07:32;4.50;;;4.30;;
3527;SDS011;1778;47.966;7.854;2023-09-07T01:08:45;4.90;;;4.70;;
3527;SDS011;1778;47.966;7.854;2023-09-07T01:09:51;5.30;;;4.90;;
3527;SDS011;1778;47.966;7.854;2023-09-07T01:10:56;5.03;;;4.73;;
3527;SDS011;1778;47.966;7.854;2023-09-07T01:11:58;5.53;;;5.03;;
3527;SDS011;1778;47.966;7.854;2023-09-07T01:13:00;5.43;;;5.13;;
3527;SDS011;1778;47.966;7.854;2023-09-07T01:14:01;4.60;;;4.30;;
3527;SDS011;1778;47.966;7.854;2023-09-07T01:15:05;4.93;;;4.63;;
3527;SDS011;1778;47.966;7.854;2023-09-07T01:16:07;7.30;;;5.40;;
3527;SDS011;1778;47.966;7.854;2023-09-07T01:17:14;5.93;;;5.53;;
3527;SDS011;1778;47.966;7.854;2023-09-07T01:18:17;5.17;;;4.83;;
3527;SDS011;1778;47.966;7.854;2023-09-07T01:19:40;6.73;;;6.07;;
3527;SDS011;1778;47.966;7.854;2023-09-07T01:20:42;5.70;;;5.30;;
3527;SDS011;1778;47.966;7.854;2023-09-07T01:21:45;5.10;;;4.80;;
3527;SDS011;1778;47.966;7.854;2023-09-07T01:22:47;8.00;;;4.83;;
3527;SDS011;1778;47.966;7.854;2023-09-07T01:23:49;5.30;;;4.90;;
3527;SDS011;1778;47.966;7.854;2023-09-07T01:24:52;5.40;;;5.00;;
3527;SDS011;1778;47.966;7.854;2023-09-07T01:25:54;4.93;;;4.63;;
3527;SDS011;1778;47.966;7.854;2023-09-07T01:26:57;5.23;;;4.93;;
3527;SDS011;1778;47.966;7.854;2023-09-07T01:27:59;4.80;;;4.50;;
3527;SDS011;1778;47.966;7.854;2023-09-07T01:29:01;4.93;;;4.53;;
3527;SDS011;1778;47.966;7.854;2023-09-07T01:30:03;6.50;;;4.40;;
3527;SDS011;1778;47.966;7.854;2023-09-07T01:31:05;8.10;;;4.57;;
3527;SDS011;1778;47.966;7.854;2023-09-07T01:32:08;4.77;;;4.60;;
3527;SDS011;1778;47.966;7.854;2023-09-07T01:33:11;5.67;;;5.17;;
3527;SDS011;1778;47.966;7.854;2023-09-07T01:34:46;8.87;;;4.83;;
3527;SDS011;1778;47.966;7.854;2023-09-07T01:35:48;5.37;;;5.00;;
3527;SDS011;1778;47.966;7.854;2023-09-07T01:36:50;4.73;;;4.43;;
3527;SDS011;1778;47.966;7.854;2023-09-07T01:37:51;4.93;;;4.63;;
3527;SDS011;1778;47.966;7.854;2023-09-07T01:38:53;4.60;;;4.20;;
3527;SDS011;1778;47.966;7.854;2023-09-07T01:39:55;4.80;;;4.60;;
3527;SDS011;1778;47.966;7.854;2023-09-07T01:40:56;4.73;;;4.40;;
3527;SDS011;1778;47.966;7.854;2023-09-07T01:41:58;4.73;;;4.43;;
3527;SDS011;1778;47.966;7.854;2023-09-07T01:42:59;4.70;;;4.40;;
3527;SDS011;1778;47.966;7.854;2023-09-07T01:44:01;5.80;;;5.23;;
3527;SDS011;1778;47.966;7.854;2023-09-07T01:45:03;5.23;;;4.80;;
3527;SDS011;1778;47.966;7.854;2023-09-07T01:46:05;5.43;;;4.70;;
3527;SDS011;1778;47.966;7.854;2023-09-07T01:47:06;4.90;;;4.57;;
3527;SDS011;1778;47.966;7.854;2023-09-07T01:48:11;9.20;;;4.90;;
3527;SDS011;1778;47.966;7.854;2023-09-07T01:49:15;4.40;;;4.20;;
3527;SDS011;1778;47.966;7.854;2023-09-07T01:50:17;5.33;;;5.03;;
3527;SDS011;1778;47.966;7.854;2023-09-07T01:51:18;5.60;;;5.20;;
3527;SDS011;1778;47.966;7.854;2023-09-07T01:52:20;4.90;;;4.43;;
3527;SDS011;1778;47.966;7.854;2023-09-07T01:53:24;5.03;;;4.70;;
3527;SDS011;1778;47.966;7.854;2023-09-07T01:54:27;5.37;;;5.00;;
3527;SDS011;1778;47.966;7.854;2023-09-07T01:55:33;4.87;;;4.57;;
3527;SDS011;1778;47.966;7.854;2023-09-07T01:56:39;5.60;;;5.10;;
3527;SDS011;1778;47.966;7.854;2023-09-07T01:57:43;4.87;;;4.60;;
3527;SDS011;1778;47.966;7.854;2023-09-07T01:58:45;4.57;;;4.27;;
3527;SDS011;1778;47.966;7.854;2023-09-07T01:59:46;5.37;;;5.07;;
3527;SDS011;1778;47.966;7.854;2023-09-07T02:00:49;4.67;;;4.23;;
3527;SDS011;1778;47.966;7.854;2023-09-07T02:01:51;4.37;;;4.07;;
3527;SDS011;1778;47.966;7.854;2023-09-07T02:02:53;4.60;;;4.33;;
3527;SDS011;1778;47.966;7.854;2023-09-07T02:03:55;5.10;;;4.70;;
3527;SDS011;1778;47.966;7.854;2023-09-07T02:04:57;6.30;;;4.70;;
3527;SDS011;1778;47.966;7.854;2023-09-07T02:05:59;4.70;;;4.40;;
3527;SDS011;1778;47.966;7.854;2023-09-07T02:07:00;5.73;;;5.33;;
3527;SDS011;1778;47.966;7.854;2023-09-07T02:08:02;6.67;;;6.07;;
3527;SDS011;1778;47.966;7.854;2023-09-07T02:09:05;5.43;;;5.03;;
3527;SDS011;1778;47.966;7.854;2023-09-07T02:10:06;5.70;;;5.20;;
3527;SDS011;1778;47.966;7.854;2023-09-07T02:11:08;5.60;;;5.30;;
3527;SDS011;1778;47.966;7.854;2023-09-07T02:12:10;5.73;;;5.40;;
3527;SDS011;1778;47.966;7.854;2023-09-07T02:13:12;4.80;;;4.50;;
3527;SDS011;1778;47.966;7.854;2023-09-07T02:14:13;5.10;;;4.60;;
3527;SDS011;1778;47.966;7.854;2023-09-07T02:15:16;6.03;;;5.50;;
3527;SDS011;1778;47.966;7.854;2023-09-07T02:16:18;5.60;;;5.10;;
3527;SDS011;1778;47.966;7.854;2023-09-07T02:17:19;5.00;;;4.60;;
3527;SDS011;1778;47.966;7.854;2023-09-07T02:18:22;6.07;;;4.90;;
3527;SDS011;1778;47.966;7.854;2023-09-07T02:19:24;6.00;;;5.17;;
3527;SDS011;1778;47.966;7.854;2023-09-07T02:20:26;5.23;;;4.97;;
3527;SDS011;1778;47.966;7.854;2023-09-07T02:21:28;5.90;;;5.50;;
3527;SDS011;1778;47.966;7.854;2023-09-07T02:22:29;5.50;;;5.10;;
3527;SDS011;1778;47.966;7.854;2023-09-07T02:23:31;5.60;;;5.23;;
3527;SDS011;1778;47.966;7.854;2023-09-07T02:24:33;4.70;;;4.30;;
3527;SDS011;1778;47.966;7.854;2023-09-07T02:25:36;5.27;;;4.97;;
3527;SDS011;1778;47.966;7.854;2023-09-07T02:26:37;4.80;;;4.60;;
3527;SDS011;1778;47.966;7.854;2023-09-07T02:27:44;6.10;;;5.03;;
3527;SDS011;1778;47.966;7.854;2023-09-07T02:28:46;4.73;;;4.43;;
3527;SDS011;1778;47.966;7.854;2023-09-07T02:29:47;5.67;;;5.37;;
3527;SDS011;1778;47.966;7.854;2023-09-07T02:30:49;5.80;;;5.50;;
3527;SDS011;1778;47.966;7.854;2023-09-07T02:31:51;5.90;;;5.40;;
3527;SDS011;1778;47.966;7.854;2023-09-07T02:32:53;6.37;;;5.90;;
3527;SDS011;1778;47.966;7.854;2023-09-07T02:33:55;7.60;;;5.80;;
3527;SDS011;1778;47.966;7.854;2023-09-07T02:34:57;5.00;;;4.60;;
3527;SDS011;1778;47.966;7.854;2023-09-07T02:35:58;5.30;;;5.00;;
3527;SDS011;1778;47.966;7.854;2023-09-07T02:37:00;5.67;;;5.37;;
3527;SDS011;1778;47.966;7.854;2023-09-07T02:38:02;6.03;;;5.50;;
3527;SDS011;1778;47.966;7.854;2023-09-07T02:39:04;5.40;;;5.10;;
3527;SDS011;1778;47.966;7.854;2023-09-07T02:40:06;8.40;;;5.23;;
3527;SDS011;1778;47.966;7.854;2023-09-07T02:41:11;5.83;;;5.43;;
3527;SDS011;1778;47.966;7.854;2023-09-07T02:42:12;5.23;;;4.83;;
3527;SDS011;1778;47.966;7.854;2023-09-07T02:43:14;6.00;;;5.57;;
3527;SDS011;1778;47.966;7.854;2023-09-07T02:44:17;5.30;;;4.90;;
3527;SDS011;1778;47.966;7.854;2023-09-07T02:45:18;4.93;;;4.63;;
3527;SDS011;1778;47.966;7.854;2023-09-07T02:46:20;5.40;;;5.00;;
3527;SDS011;1778;47.966;7.854;2023-09-07T02:47:21;5.30;;;4.97;;
3527;SDS011;1778;47.966;7.854;2023-09-07T02:48:23;5.53;;;5.20;;
3527;SDS011;1778;47.966;7.854;2023-09-07T02:49:25;6.03;;;5.53;;
3527;SDS011;1778;47.966;7.854;2023-09-07T02:50:28;5.10;;;4.90;;
3527;SDS011;1778;47.966;7.854;2023-09-07T02:51:30;5.57;;;5.17;;
3527;SDS011;1778;47.966;7.854;2023-09-07T02:52:32;4.80;;;4.50;;
3527;SDS011;1778;47.966;7.854;2023-09-07T02:53:34;5.77;;;5.30;;
3527;SDS011;1778;47.966;7.854;2023-09-07T02:54:35;4.80;;;4.60;;
3527;SDS011;1778;47.966;7.854;2023-09-07T02:55:39;5.97;;;5.57;;
3527;SDS011;1778;47.966;7.854;2023-09-07T02:56:41;5.73;;;5.37;;
3527;SDS011;1778;47.966;7.854;2023-09-07T02:57:42;5.50;;;5.10;;
3527;SDS011;1778;47.966;7.854;2023-09-07T02:58:44;5.50;;;5.20;;
3527;SDS011;1778;47.966;7.854;2023-09-07T02:59:46;5.13;;;4.73;;
3527;SDS011;1778;47.966;7.854;2023-09-07T03:00:47;5.43;;;5.17;;
3527;SDS011;1778;47.966;7.854;2023-09-07T03:01:52;4.90;;;4.70;;
3527;SDS011;1778;47.966;7.854;2023-09-07T03:02:54;5.23;;;4.93;;
3527;SDS011;1778;47.966;7.854;2023-09-07T03:03:56;5.60;;;5.23;;
3527;SDS011;1778;47.966;7.854;2023-09-07T03:04:58;5.60;;;5.20;;
3527;SDS011;1778;47.966;7.854;2023-09-07T03:06:10;5.23;;;4.97;;
3527;SDS011;1778;47.966;7.854;2023-09-07T03:07:15;5.57;;;5.17;;
3527;SDS011;1778;47.966;7.854;2023-09-07T03:08:17;5.43;;;5.03;;
3527;SDS011;1778;47.966;7.854;2023-09-07T03:09:19;5.47;;;5.07;;
3527;SDS011;1778;47.966;7.854;2023-09-07T03:10:20;6.60;;;6.00;;
3527;SDS011;1778;47.966;7.854;2023-09-07T03:11:22;5.70;;;5.37;;
3527;SDS011;1778;47.966;7.854;2023-09-07T03:12:25;5.67;;;5.27;;
3527;SDS011;1778;47.966;7.854;2023-09-07T03:13:27;5.30;;;4.87;;
3527;SDS011;1778;47.966;7.854;2023-09-07T03:14:28;5.33;;;5.03;;
3527;SDS011;1778;47.966;7.854;2023-09-07T03:15:31;5.73;;;5.30;;
3527;SDS011;1778;47.966;7.854;2023-09-07T03:16:33;5.80;;;5.40;;
3527;SDS011;1778;47.966;7.854;2023-09-07T03:17:34;5.10;;;4.80;;
3527;SDS011;1778;47.966;7.854;2023-09-07T03:18:36;5.10;;;4.80;;
3527;SDS011;1778;47.966;7.854;2023-09-07T03:19:37;5.47;;;5.10;;
3527;SDS011;1778;47.966;7.854;2023-09-07T03:20:39;6.37;;;5.00;;
3527;SDS011;1778;47.966;7.854;2023-09-07T03:21:41;5.80;;;5.13;;
3527;SDS011;1778;47.966;7.854;2023-09-07T03:22:45;4.93;;;4.63;;
3527;SDS011;1778;47.966;7.854;2023-09-07T03:23:48;5.50;;;5.20;;
3527;SDS011;1778;47.966;7.854;2023-09-07T03:24:50;6.37;;;5.90;;
3527;SDS011;1778;47.966;7.854;2023-09-07T03:25:52;6.07;;;5.47;;
3527;SDS011;1778;47.966;7.854;2023-09-07T03:26:54;6.37;;;5.83;;
3527;SDS011;1778;47.966;7.854;2023-09-07T03:27:55;5.83;;;5.43;;
3527;SDS011;1778;47.966;7.854;2023-09-07T03:28:57;5.57;;;5.07;;
3527;SDS011;1778;47.966;7.854;2023-09-07T03:29:59;5.07;;;4.77;;
3527;SDS011;1778;47.966;7.854;2023-09-07T03:31:00;5.63;;;5.13;;
3527;SDS011;1778;47.966;7.854;2023-09-07T03:32:02;5.30;;;5.00;;
3527;SDS011;1778;47.966;7.854;2023-09-07T03:33:05;5.10;;;4.80;;
3527;SDS011;1778;47.966;7.854;2023-09-07T03:34:06;5.63;;;5.33;;
3527;SDS011;1778;47.966;7.854;2023-09-07T03:35:08;5.20;;;4.80;;
3527;SDS011;1778;47.966;7.854;2023-09-07T03:36:10;5.23;;;4.93;;
3527;SDS011;1778;47.966;7.854;2023-09-07T03:37:15;6.33;;;5.83;;
3527;SDS011;1778;47.966;7.854;2023-09-07T03:38:16;5.07;;;4.67;;
3527;SDS011;1778;47.966;7.854;2023-09-07T03:39:18;5.63;;;5.23;;
3527;SDS011;1778;47.966;7.854;2023-09-07T03:40:22;5.20;;;4.90;;
3527;SDS011;1778;47.966;7.854;2023-09-07T03:41:24;5.80;;;5.30;;
3527;SDS011;1778;47.966;7.854;2023-09-07T03:42:31;5.70;;;5.30;;
3527;SDS011;1778;47.966;7.854;2023-09-07T03:43:34;5.10;;;4.90;;
3527;SDS011;1778;47.966;7.854;2023-09-07T03:44:36;6.27;;;5.70;;
3527;SDS011;1778;47.966;7.854;2023-09-07T03:45:38;4.83;;;4.60;;
3527;SDS011;1778;47.966;7.854;2023-09-07T03:46:39;5.17;;;4.90;;
3527;SDS011;1778;47.966;7.854;2023-09-07T03:47:41;6.00;;;5.60;;
3527;SDS011;1778;47.966;7.854;2023-09-07T03:48:44;5.70;;;5.40;;
3527;SDS011;1778;47.966;7.854;2023-09-07T03:49:46;5.10;;;4.80;;
3527;SDS011;1778;47.966;7.854;2023-09-07T03:50:47;4.90;;;4.60;;
3527;SDS011;1778;47.966;7.854;2023-09-07T03:51:49;5.00;;;4.60;;
3527;SDS011;1778;47.966;7.854;2023-09-07T03:52:51;5.90;;;5.40;;
3527;SDS011;1778;47.966;7.854;2023-09-07T03:53:52;5.83;;;5.00;;
3527;SDS011;1778;47.966;7.854;2023-09-07T03:54:54;5.67;;;5.37;;
3527;SDS011;1778;47.966;7.854;2023-09-07T03:55:57;5.80;;;5.20;;
3527;SDS011;1778;47.966;7.854;2023-09-07T03:56:58;6.30;;;5.87;;
3527;SDS011;1778;47.966;7.854;2023-09-07T03:58:00;6.17;;;5.67;;
3527;SDS011;1778;47.966;7.854;2023-09-07T03:59:01;6.13;;;5.47;;
3527;SDS011;1778;47.966;7.854;2023-09-07T04:00:03;5.83;;;5.43;;
3527;SDS011;1778;47.966;7.854;2023-09-07T04:01:17;5.17;;;4.87;;
3527;SDS011;1778;47.966;7.854;2023-09-07T04:02:19;5.97;;;5.57;;
3527;SDS011;1778;47.966;7.854;2023-09-07T04:03:21;5.63;;;5.20;;
3527;SDS011;1778;47.966;7.854;2023-09-07T04:04:23;5.90;;;5.50;;
3527;SDS011;1778;47.966;7.854;2023-09-07T04:05:25;5.77;;;5.47;;
3527;SDS011;1778;47.966;7.854;2023-09-07T04:06:27;5.67;;;5.27;;
3527;SDS011;1778;47.966;7.854;2023-09-07T04:07:29;8.10;;;5.70;;
3527;SDS011;1778;47.966;7.854;2023-09-07T04:08:32;5.60;;;5.30;;
3527;SDS011;1778;47.966;7.854;2023-09-07T04:09:33;5.67;;;5.17;;
3527;SDS011;1778;47.966;7.854;2023-09-07T04:10:38;6.40;;;5.53;;
3527;SDS011;1778;47.966;7.854;2023-09-07T04:11:40;5.87;;;5.47;;
3527;SDS011;1778;47.966;7.854;2023-09-07T04:12:42;6.20;;;5.70;;
3527;SDS011;1778;47.966;7.854;2023-09-07T04:13:43;6.43;;;5.83;;
3527;SDS011;1778;47.966;7.854;2023-09-07T04:14:45;8.17;;;5.80;;
3527;SDS011;1778;47.966;7.854;2023-09-07T04:15:47;5.70;;;5.20;;
3527;SDS011;1778;47.966;7.854;2023-09-07T04:16:50;6.73;;;6.23;;
3527;SDS011;1778;47.966;7.854;2023-09-07T04:17:53;6.10;;;5.50;;
3527;SDS011;1778;47.966;7.854;2023-09-07T04:18:56;6.60;;;6.10;;
3527;SDS011;1778;47.966;7.854;2023-09-07T04:19:57;6.03;;;5.63;;
3527;SDS011;1778;47.966;7.854;2023-09-07T04:21:04;5.83;;;5.40;;
3527;SDS011;1778;47.966;7.854;2023-09-07T04:22:12;16.87;;;6.50;;
3527;SDS011;1778;47.966;7.854;2023-09-07T04:23:16;5.90;;;5.40;;
3527;SDS011;1778;47.966;7.854;2023-09-07T04:24:18;6.63;;;6.13;;
3527;SDS011;1778;47.966;7.854;2023-09-07T04:25:20;6.57;;;6.13;;
3527;SDS011;1778;47.966;7.854;2023-09-07T04:26:21;7.23;;;6.63;;
3527;SDS011;1778;47.966;7.854;2023-09-07T04:27:23;6.23;;;5.83;;
3527;SDS011;1778;47.966;7.854;2023-09-07T04:28:24;6.50;;;5.73;;
3527;SDS011;1778;47.966;7.854;2023-09-07T04:29:26;9.30;;;6.20;;
3527;SDS011;1778;47.966;7.854;2023-09-07T04:30:28;6.93;;;6.43;;
3527;SDS011;1778;47.966;7.854;2023-09-07T04:31:30;6.80;;;6.20;;
3527;SDS011;1778;47.966;7.854;2023-09-07T04:32:31;6.90;;;5.97;;
3527;SDS011;1778;47.966;7.854;2023-09-07T04:33:33;6.30;;;5.80;;
3527;SDS011;1778;47.966;7.854;2023-09-07T04:34:35;6.00;;;5.60;;
3527;SDS011;1778;47.966;7.854;2023-09-07T04:35:37;15.63;;;6.30;;
3527;SDS011;1778;47.966;7.854;2023-09-07T04:36:40;6.80;;;6.20;;
3527;SDS011;1778;47.966;7.854;2023-09-07T04:37:42;6.53;;;6.00;;
3527;SDS011;1778;47.966;7.854;2023-09-07T04:38:44;6.53;;;6.03;;
3527;SDS011;1778;47.966;7.854;2023-09-07T04:39:46;8.73;;;5.53;;
3527;SDS011;1778;47.966;7.854;2023-09-07T04:40:50;6.10;;;5.60;;
3527;SDS011;1778;47.966;7.854;2023-09-07T04:41:52;7.40;;;5.30;;
3527;SDS011;1778;47.966;7.854;2023-09-07T04:42:53;6.10;;;5.70;;
3527;SDS011;1778;47.966;7.854;2023-09-07T04:43:55;5.80;;;5.50;;
3527;SDS011;1778;47.966;7.854;2023-09-07T04:44:58;7.10;;;5.57;;
3527;SDS011;1778;47.966;7.854;2023-09-07T04:46:00;6.17;;;5.77;;
3527;SDS011;1778;47.966;7.854;2023-09-07T04:47:01;6.23;;;5.83;;
3527;SDS011;1778;47.966;7.854;2023-09-07T04:48:03;6.83;;;6.00;;
3527;SDS011;1778;47.966;7.854;2023-09-07T04:49:06;6.03;;;5.63;;
3527;SDS011;1778;47.966;7.854;2023-09-07T04:50:09;6.37;;;5.97;;
3527;SDS011;1778;47.966;7.854;2023-09-07T04:51:10;6.17;;;5.77;;
3527;SDS011;1778;47.966;7.854;2023-09-07T04:52:14;5.80;;;5.40;;
3527;SDS011;1778;47.966;7.854;2023-09-07T04:53:15;6.23;;;5.83;;
3527;SDS011;1778;47.966;7.854;2023-09-07T04:54:17;6.40;;;6.00;;
3527;SDS011;1778;47.966;7.854;2023-09-07T04:55:19;6.97;;;6.47;;
3527;SDS011;1778;47.966;7.854;2023-09-07T04:56:20;6.40;;;5.90;;
3527;SDS011;1778;47.966;7.854;2023-09-07T04:57:23;6.20;;;5.80;;
3527;SDS011;1778;47.966;7.854;2023-09-07T04:58:25;7.50;;;6.90;;
3527;SDS011;1778;47.966;7.854;2023-09-07T04:59:26;7.77;;;7.27;;
3527;SDS011;1778;47.966;7.854;2023-09-07T05:00:28;7.93;;;6.53;;
3527;SDS011;1778;47.966;7.854;2023-09-07T05:01:30;6.77;;;6.27;;
3527;SDS011;1778;47.966;7.854;2023-09-07T05:02:32;6.93;;;6.50;;
3527;SDS011;1778;47.966;7.854;2023-09-07T05:03:40;6.73;;;6.13;;
3527;SDS011;1778;47.966;7.854;2023-09-07T05:04:43;7.10;;;6.50;;
3527;SDS011;1778;47.966;7.854;2023-09-07T05:05:50;6.43;;;6.00;;
3527;SDS011;1778;47.966;7.854;2023-09-07T05:06:52;6.60;;;6.10;;
3527;SDS011;1778;47.966;7.854;2023-09-07T05:07:54;8.13;;;6.70;;
3527;SDS011;1778;47.966;7.854;2023-09-07T05:08:56;6.37;;;5.97;;
3527;SDS011;1778;47.966;7.854;2023-09-07T05:09:57;8.40;;;6.80;;
3527;SDS011;1778;47.966;7.854;2023-09-07T05:11:00;6.77;;;6.37;;
3527;SDS011;1778;47.966;7.854;2023-09-07T05:12:03;7.60;;;7.03;;
3527;SDS011;1778;47.966;7.854;2023-09-07T05:13:05;7.13;;;6.53;;
3527;SDS011;1778;47.966;7.854;2023-09-07T05:14:07;7.20;;;6.67;;
3527;SDS011;1778;47.966;7.854;2023-09-07T05:15:08;6.50;;;6.00;;
3527;SDS011;1778;47.966;7.854;2023-09-07T05:16:10;6.77;;;6.23;;
3527;SDS011;1778;47.966;7.854;2023-09-07T05:17:13;7.33;;;6.77;;
3527;SDS011;1778;47.966;7.854;2023-09-07T05:18:14;6.27;;;5.77;;
3527;SDS011;1778;47.966;7.854;2023-09-07T05:19:16;6.07;;;5.67;;
3527;SDS011;1778;47.966;7.854;2023-09-07T05:20:19;7.33;;;6.83;;
3527;SDS011;1778;47.966;7.854;2023-09-07T05:21:21;6.27;;;5.77;;
3527;SDS011;1778;47.966;7.854;2023-09-07T05:22:24;7.20;;;6.57;;
3527;SDS011;1778;47.966;7.854;2023-09-07T05:23:28;6.53;;;5.93;;
3527;SDS011;1778;47.966;7.854;2023-09-07T05:24:30;6.40;;;6.00;;
3527;SDS011;1778;47.966;7.854;2023-09-07T05:25:32;6.00;;;5.60;;
3527;SDS011;1778;47.966;7.854;2023-09-07T05:26:33;5.77;;;5.47;;
3527;SDS011;1778;47.966;7.854;2023-09-07T05:27:35;8.90;;;6.33;;
3527;SDS011;1778;47.966;7.854;2023-09-07T05:28:39;7.40;;;6.80;;
3527;SDS011;1778;47.966;7.854;2023-09-07T05:29:44;6.30;;;5.93;;
3527;SDS011;1778;47.966;7.854;2023-09-07T05:30:46;6.67;;;6.03;;
3527;SDS011;1778;47.966;7.854;2023-09-07T05:31:48;6.23;;;5.63;;
3527;SDS011;1778;47.966;7.854;2023-09-07T05:32:50;7.03;;;6.00;;
3527;SDS011;1778;47.966;7.854;2023-09-07T05:33:51;6.07;;;5.67;;
3527;SDS011;1778;47.966;7.854;2023-09-07T05:34:53;6.67;;;6.23;;
3527;SDS011;1778;47.966;7.854;2023-09-07T05:35:54;6.87;;;6.37;;
3527;SDS011;1778;47.966;7.854;2023-09-07T05:36:56;6.67;;;6.27;;
3527;SDS011;1778;47.966;7.854;2023-09-07T05:37:58;6.50;;;5.93;;
3527;SDS011;1778;47.966;7.854;2023-09-07T05:39:00;7.30;;;5.80;;
3527;SDS011;1778;47.966;7.854;2023-09-07T05:40:04;5.73;;;5.43;;
3527;SDS011;1778;47.966;7.854;2023-09-07T05:41:06;6.10;;;5.70;;
3527;SDS011;1778;47.966;7.854;2023-09-07T05:42:08;5.60;;;5.10;;
3527;SDS011;1778;47.966;7.854;2023-09-07T05:43:10;6.20;;;5.80;;
3527;SDS011;1778;47.966;7.854;2023-09-07T05:44:12;5.90;;;5.53;;
3527;SDS011;1778;47.966;7.854;2023-09-07T05:45:14;5.73;;;5.33;;
3527;SDS011;1778;47.966;7.854;2023-09-07T05:46:16;5.77;;;5.43;;
3527;SDS011;1778;47.966;7.854;2023-09-07T05:47:17;6.30;;;5.70;;
3527;SDS011;1778;47.966;7.854;2023-09-07T05:48:19;7.77;;;6.90;;
3527;SDS011;1778;47.966;7.854;2023-09-07T05:49:21;7.00;;;6.50;;
3527;SDS011;1778;47.966;7.854;2023-09-07T05:50:23;12.83;;;5.57;;
3527;SDS011;1778;47.966;7.854;2023-09-07T05:51:25;6.17;;;5.67;;
3527;SDS011;1778;47.966;7.854;2023-09-07T05:52:26;7.07;;;6.37;;
3527;SDS011;1778;47.966;7.854;2023-09-07T05:53:28;6.57;;;6.10;;
3527;SDS011;1778;47.966;7.854;2023-09-07T05:54:29;6.90;;;6.30;;
3527;SDS011;1778;47.966;7.854;2023-09-07T05:55:31;6.10;;;5.60;;
3527;SDS011;1778;47.966;7.854;2023-09-07T05:56:33;8.60;;;5.87;;
3527;SDS011;1778;47.966;7.854;2023-09-07T05:57:35;6.63;;;6.03;;
3527;SDS011;1778;47.966;7.854;2023-09-07T05:58:37;6.30;;;5.90;;
3527;SDS011;1778;47.966;7.854;2023-09-07T05:59:39;7.23;;;6.20;;
3527;SDS011;1778;47.966;7.854;2023-09-07T06:00:40;6.60;;;6.20;;
3527;SDS011;1778;47.966;7.854;2023-09-07T06:01:42;7.00;;;6.40;;
3527;SDS011;1778;47.966;7.854;2023-09-07T06:02:45;6.50;;;6.10;;
3527;SDS011;1778;47.966;7.854;2023-09-07T06:03:47;6.13;;;5.73;;
3527;SDS011;1778;47.966;7.854;2023-09-07T06:04:49;8.40;;;6.23;;
3527;SDS011;1778;47.966;7.854;2023-09-07T06:05:50;9.43;;;6.13;;
3527;SDS011;1778;47.966;7.854;2023-09-07T06:06:52;5.90;;;5.50;;
3527;SDS011;1778;47.966;7.854;2023-09-07T06:07:54;6.00;;;5.50;;
3527;SDS011;1778;47.966;7.854;2023-09-07T06:08:55;5.97;;;5.60;;
3527;SDS011;1778;47.966;7.854;2023-09-07T06:09:58;6.60;;;6.10;;
3527;SDS011;1778;47.966;7.854;2023-09-07T06:10:59;8.00;;;7.20;;
3527;SDS011;1778;47.966;7.854;2023-09-07T06:12:02;6.40;;;6.00;;
3527;SDS011;1778;47.966;7.854;2023-09-07T06:13:04;6.80;;;6.20;;
3527;SDS011;1778;47.966;7.854;2023-09-07T06:14:06;7.10;;;6.60;;
3527;SDS011;1778;47.966;7.854;2023-09-07T06:15:08;6.40;;;5.73;;
3527;SDS011;1778;47.966;7.854;2023-09-07T06:16:11;8.63;;;6.43;;
3527;SDS011;1778;47.966;7.854;2023-09-07T06:17:13;5.77;;;5.40;;
3527;SDS011;1778;47.966;7.854;2023-09-07T06:18:14;5.60;;;5.20;;
3527;SDS011;1778;47.966;7.854;2023-09-07T06:19:16;6.20;;;5.80;;
3527;SDS011;1778;47.966;7.854;2023-09-07T06:20:17;7.20;;;6.40;;
3527;SDS011;1778;47.966;7.854;2023-09-07T06:21:20;5.83;;;5.47;;
3527;SDS011;1778;47.966;7.854;2023-09-07T06:22:21;13.13;;;6.07;;
3527;SDS011;1778;47.966;7.854;2023-09-07T06:23:24;5.80;;;5.40;;
3527;SDS011;1778;47.966;7.854;2023-09-07T06:24:26;6.73;;;6.20;;
3527;SDS011;1778;47.966;7.854;2023-09-07T06:25:28;6.30;;;5.30;;
3527;SDS011;1778;47.966;7.854;2023-09-07T06:26:30;5.63;;;5.13;;
3527;SDS011;1778;47.966;7.854;2023-09-07T06:27:32;6.07;;;5.73;;
3527;SDS011;1778;47.966;7.854;2023-09-07T06:28:33;6.10;;;5.50;;